createdAt,value
2017-12-20T00:00:49.596Z,270.87
2017-12-20T00:03:17.125Z,277.83
2017-12-20T00:05:44.825Z,281.97
2017-12-20T00:08:12.339Z,275.03
2017-12-20T00:10:39.918Z,271.93
2017-12-20T00:13:07.517Z,276.63
2017-12-20T00:15:35.040Z,306.03
2017-12-20T00:18:02.708Z,205.73
2017-12-20T00:20:30.232Z,271.80
2017-12-20T00:22:57.822Z,265.23
2017-12-20T00:25:25.624Z,256.73
2017-12-20T00:27:53.152Z,227.63
2017-12-20T00:30:20.691Z,240.17
2017-12-20T00:32:48.632Z,235.30
2017-12-20T00:35:16.387Z,220.87
2017-12-20T00:37:43.922Z,202.80
2017-12-20T00:40:11.550Z,179.03
2017-12-20T00:42:39.545Z,242.40
2017-12-20T00:45:07.103Z,258.23
2017-12-20T00:47:34.640Z,286.70
2017-12-20T00:50:02.279Z,249.37
2017-12-20T00:52:29.808Z,283.30
2017-12-20T00:54:57.429Z,246.87
2017-12-20T00:57:24.948Z,226.13
2017-12-20T00:59:52.486Z,261.43
2017-12-20T01:02:20.731Z,266.43
2017-12-20T01:04:48.258Z,242.00
2017-12-20T01:07:15.918Z,225.17
2017-12-20T01:09:43.489Z,239.03
2017-12-20T01:12:11.121Z,248.23
2017-12-20T01:14:38.648Z,271.07
2017-12-20T01:17:06.592Z,270.53
2017-12-20T01:19:34.218Z,278.30
2017-12-20T01:22:01.752Z,223.87
2017-12-20T01:24:29.713Z,246.60
2017-12-20T01:26:57.249Z,247.17
2017-12-20T01:29:24.771Z,240.37
2017-12-20T01:31:52.401Z,210.70
2017-12-20T01:34:19.929Z,241.03
2017-12-20T01:36:47.528Z,232.03
2017-12-20T01:39:15.109Z,243.20
2017-12-20T01:41:42.760Z,250.60
2017-12-20T01:44:10.297Z,257.60
2017-12-20T01:46:37.816Z,225.63
2017-12-20T01:49:05.391Z,236.63
2017-12-20T01:51:33.063Z,254.53
2017-12-20T01:54:00.636Z,228.67
2017-12-20T01:56:28.296Z,214.97
2017-12-20T01:58:55.840Z,219.37
2017-12-20T02:01:23.393Z,200.63
2017-12-20T02:03:50.956Z,262.93
2017-12-20T02:06:18.972Z,269.23
2017-12-20T02:08:46.605Z,238.40
2017-12-20T02:11:14.132Z,238.47
2017-12-20T02:13:42.092Z,229.03
2017-12-20T02:16:09.672Z,199.47
2017-12-20T02:18:37.198Z,245.87
2017-12-20T02:21:05.188Z,259.97
2017-12-20T02:23:32.733Z,253.13
2017-12-20T02:26:00.278Z,216.07
2017-12-20T02:28:28.360Z,215.53
2017-12-20T02:30:55.921Z,192.03
2017-12-20T02:33:30.482Z,207.47
2017-12-20T02:35:58.101Z,165.67
2017-12-20T02:38:35.852Z,217.70
2017-12-20T02:41:07.064Z,177.13
2017-12-20T02:43:34.626Z,178.87
2017-12-20T02:46:02.777Z,177.43
2017-12-20T02:48:30.324Z,168.53
2017-12-20T02:50:57.884Z,158.17
2017-12-20T02:53:25.465Z,154.83
2017-12-20T02:55:53.181Z,169.50
2017-12-20T02:58:20.833Z,156.10
2017-12-20T03:00:48.380Z,160.00
2017-12-20T03:03:16.593Z,123.20
2017-12-20T03:05:44.129Z,143.03
2017-12-20T03:08:11.739Z,127.03
2017-12-20T03:10:39.719Z,143.50
2017-12-20T03:13:07.261Z,141.20
2017-12-20T03:15:34.893Z,145.80
2017-12-20T03:18:02.463Z,156.63
2017-12-20T03:20:30.178Z,165.83
2017-12-20T03:22:57.709Z,159.43
2017-12-20T03:25:25.384Z,182.67
2017-12-20T03:27:52.993Z,180.93
2017-12-20T03:30:20.588Z,203.00
2017-12-20T03:32:48.133Z,177.23
2017-12-20T03:35:15.709Z,206.60
2017-12-20T03:37:43.279Z,189.23
2017-12-20T03:40:10.808Z,211.60
2017-12-20T03:42:38.331Z,184.47
2017-12-20T03:45:05.948Z,222.83
2017-12-20T03:47:33.473Z,191.73
2017-12-20T03:50:00.995Z,227.97
2017-12-20T03:52:28.567Z,246.90
2017-12-20T03:54:56.125Z,201.37
2017-12-20T03:57:24.045Z,204.40
2017-12-20T03:59:51.584Z,224.53
2017-12-20T04:02:19.112Z,197.00
2017-12-20T04:04:47.165Z,191.43
2017-12-20T04:07:14.696Z,197.37
2017-12-20T04:09:42.383Z,221.97
2017-12-20T04:12:09.962Z,203.50
2017-12-20T04:14:37.541Z,198.93
2017-12-20T04:17:05.069Z,226.27
2017-12-20T04:19:32.619Z,231.10
2017-12-20T04:22:00.249Z,216.33
2017-12-20T04:24:27.800Z,264.20
2017-12-20T04:26:55.328Z,253.43
2017-12-20T04:29:22.910Z,262.63
2017-12-20T04:31:50.446Z,276.90
2017-12-20T04:34:18.748Z,257.37
2017-12-20T04:36:46.275Z,286.63
2017-12-20T04:39:13.801Z,255.03
2017-12-20T04:41:41.377Z,273.47
2017-12-20T04:44:08.948Z,258.20
2017-12-20T04:46:36.481Z,312.80
2017-12-20T04:49:04.115Z,275.93
2017-12-20T04:51:31.646Z,309.37
2017-12-20T04:53:59.321Z,345.67
2017-12-20T04:56:26.904Z,332.27
2017-12-20T04:58:54.433Z,306.03
2017-12-20T05:01:21.960Z,379.20
2017-12-20T05:03:49.523Z,358.37
2017-12-20T05:06:17.292Z,357.83
2017-12-20T05:08:44.815Z,275.33
2017-12-20T05:11:12.374Z,333.03
2017-12-20T05:13:39.904Z,423.67
2017-12-20T05:16:07.482Z,353.00
2017-12-20T05:18:35.015Z,328.40
2017-12-20T05:21:02.573Z,393.07
2017-12-20T05:23:30.464Z,345.33
2017-12-20T05:25:57.992Z,332.10
2017-12-20T05:28:25.521Z,314.37
2017-12-20T05:30:53.827Z,291.27
2017-12-20T05:33:21.381Z,308.00
2017-12-20T05:35:49.300Z,344.70
2017-12-20T05:38:17.199Z,333.10
2017-12-20T05:40:44.801Z,434.73
2017-12-20T05:43:12.697Z,274.87
2017-12-20T05:45:40.215Z,299.53
2017-12-20T05:48:08.237Z,227.90
2017-12-20T05:50:35.836Z,297.03
2017-12-20T05:53:03.352Z,232.07
2017-12-20T05:55:30.872Z,274.67
2017-12-20T05:57:58.424Z,263.00
2017-12-20T06:00:26.145Z,247.47
2017-12-20T06:02:53.723Z,337.63
2017-12-20T06:05:21.252Z,298.10
2017-12-20T06:07:48.772Z,318.17
2017-12-20T06:10:16.347Z,314.47
2017-12-20T06:12:43.867Z,336.97
2017-12-20T06:15:11.392Z,291.33
2017-12-20T06:17:38.936Z,283.70
2017-12-20T06:20:06.466Z,383.47
2017-12-20T06:22:34.043Z,357.90
2017-12-20T06:25:01.571Z,315.23
2017-12-20T06:27:29.456Z,382.77
2017-12-20T06:29:57.062Z,301.60
2017-12-20T06:32:24.582Z,265.33
2017-12-20T06:34:52.114Z,345.03
2017-12-20T06:37:19.688Z,324.83
2017-12-20T06:39:47.210Z,230.57
2017-12-20T06:42:14.745Z,220.93
2017-12-20T06:44:42.320Z,257.53
2017-12-20T06:47:09.852Z,224.50
2017-12-20T06:49:37.386Z,241.57
2017-12-20T06:52:05.889Z,264.80
2017-12-20T06:54:33.901Z,227.47
2017-12-20T06:57:02.415Z,222.47
2017-12-20T06:59:30.972Z,194.27
2017-12-20T07:01:58.508Z,191.03
2017-12-20T07:04:26.030Z,168.07
2017-12-20T07:06:54.492Z,183.30
2017-12-20T07:09:22.017Z,251.90
2017-12-20T07:11:49.565Z,235.53
2017-12-20T07:14:17.509Z,263.57
2017-12-20T07:16:45.032Z,260.33
2017-12-20T07:19:12.543Z,220.57
2017-12-20T07:21:40.132Z,216.83
2017-12-20T07:24:07.661Z,183.23
2017-12-20T07:26:35.180Z,243.37
2017-12-20T07:29:02.732Z,293.40
2017-12-20T07:31:30.271Z,270.03
2017-12-20T07:33:58.070Z,212.77
2017-12-20T07:36:25.677Z,223.83
2017-12-20T07:38:53.204Z,279.50
2017-12-20T07:41:20.714Z,149.70
2017-12-20T07:43:48.467Z,207.10
2017-12-20T07:46:16.139Z,286.80
2017-12-20T07:48:43.666Z,169.50
2017-12-20T07:51:11.257Z,183.67
2017-12-20T07:53:38.883Z,299.23
2017-12-20T07:56:06.520Z,266.83
2017-12-20T07:58:34.395Z,198.80
2017-12-20T08:01:01.911Z,197.80
2017-12-20T08:03:29.436Z,374.10
2017-12-20T08:05:57.350Z,264.13
2017-12-20T08:08:25.207Z,219.47
2017-12-20T08:10:52.738Z,298.77
2017-12-20T08:13:20.628Z,179.17
2017-12-20T08:15:48.157Z,222.03
2017-12-20T08:18:15.679Z,276.90
2017-12-20T08:20:43.285Z,296.13
2017-12-20T08:23:10.804Z,276.23
2017-12-20T08:25:38.327Z,197.83
2017-12-20T08:28:06.216Z,230.07
2017-12-20T08:30:33.749Z,237.30
2017-12-20T08:33:01.284Z,262.43
2017-12-20T08:35:29.205Z,255.07
2017-12-20T08:37:56.738Z,175.70
2017-12-20T08:40:24.284Z,254.47
2017-12-20T08:42:52.194Z,148.77
2017-12-20T08:45:19.782Z,178.10
2017-12-20T08:47:47.441Z,186.10
2017-12-20T08:50:14.967Z,222.73
2017-12-20T08:52:42.864Z,215.30
2017-12-20T08:55:10.396Z,172.33
2017-12-20T08:57:37.924Z,209.87
2017-12-20T09:00:05.492Z,162.40
2017-12-20T09:02:33.028Z,185.87
2017-12-20T09:05:00.604Z,159.07
2017-12-20T09:07:28.175Z,137.83
2017-12-20T09:09:55.696Z,144.73
2017-12-20T09:12:23.211Z,153.93
2017-12-20T09:14:50.804Z,190.53
2017-12-20T09:17:18.323Z,172.47
2017-12-20T09:19:45.848Z,243.33
2017-12-20T09:22:13.547Z,210.60
2017-12-20T09:24:41.084Z,160.90
2017-12-20T09:27:08.666Z,168.70
2017-12-20T09:29:36.217Z,170.80
2017-12-20T09:32:03.756Z,145.57
2017-12-20T09:34:31.308Z,152.03
2017-12-20T09:36:58.838Z,112.87
2017-12-20T09:39:26.412Z,177.53
2017-12-20T09:41:53.943Z,154.03
2017-12-20T09:44:21.476Z,123.57
2017-12-20T09:46:49.186Z,152.97
2017-12-20T09:49:16.724Z,138.53
2017-12-20T09:51:44.257Z,135.23
2017-12-20T09:54:12.203Z,150.70
2017-12-20T09:56:39.833Z,201.80
2017-12-20T09:59:07.402Z,234.27
2017-12-20T10:01:35.955Z,145.53
2017-12-20T10:04:04.606Z,134.17
2017-12-20T10:06:32.946Z,107.10
2017-12-20T10:09:00.504Z,111.70
2017-12-20T10:11:29.252Z,91.97
2017-12-20T10:13:57.224Z,101.67
2017-12-20T10:16:25.599Z,95.87
2017-12-20T10:18:53.119Z,135.17
2017-12-20T10:21:21.351Z,131.33
2017-12-20T10:23:48.896Z,134.90
2017-12-20T10:26:16.430Z,98.23
2017-12-20T10:28:44.042Z,108.30
2017-12-20T10:31:11.574Z,125.47
2017-12-20T10:33:39.332Z,178.20
2017-12-20T10:36:06.930Z,140.47
2017-12-20T10:38:34.445Z,117.07
2017-12-20T10:41:01.990Z,117.43
2017-12-20T10:43:29.543Z,108.83
2017-12-20T10:45:57.125Z,102.57
2017-12-20T10:48:24.639Z,135.63
2017-12-20T10:50:52.171Z,87.47
2017-12-20T10:53:19.721Z,77.40
2017-12-20T10:55:47.721Z,105.83
2017-12-20T10:58:15.240Z,85.80
2017-12-20T11:00:42.758Z,88.43
2017-12-20T11:03:10.343Z,85.37
2017-12-20T11:05:37.871Z,120.47
2017-12-20T11:08:06.079Z,98.70
2017-12-20T11:10:33.636Z,109.23
2017-12-20T11:13:01.172Z,82.47
2017-12-20T11:15:29.121Z,89.43
2017-12-20T11:17:56.668Z,101.20
2017-12-20T11:20:24.222Z,158.50
2017-12-20T11:22:51.808Z,87.90
2017-12-20T11:25:19.435Z,92.70
2017-12-20T11:27:47.307Z,91.00
2017-12-20T11:30:15.218Z,92.20
2017-12-20T11:32:42.752Z,80.53
2017-12-20T11:35:10.263Z,55.73
2017-12-20T11:37:38.201Z,66.03
2017-12-20T11:40:06.152Z,70.10
2017-12-20T11:42:34.128Z,64.97
2017-12-20T11:45:01.701Z,55.90
2017-12-20T11:47:29.241Z,50.53
2017-12-20T11:49:57.418Z,64.00
2017-12-20T11:52:25.040Z,55.27
2017-12-20T11:54:52.560Z,44.93
2017-12-20T11:57:20.085Z,62.87
2017-12-20T11:59:47.665Z,61.30
2017-12-20T12:02:15.300Z,55.70
2017-12-20T12:04:42.816Z,53.90
2017-12-20T12:07:10.409Z,82.63
2017-12-20T12:09:38.206Z,64.70
2017-12-20T12:12:05.731Z,78.03
2017-12-20T12:14:33.446Z,71.23
2017-12-20T12:17:00.985Z,54.17
2017-12-20T12:19:28.507Z,54.77
2017-12-20T12:21:57.206Z,56.97
2017-12-20T12:24:24.775Z,52.57
2017-12-20T12:26:52.301Z,43.60
2017-12-20T12:29:19.888Z,78.37
2017-12-20T12:31:47.408Z,60.63
2017-12-20T12:34:14.980Z,55.13
2017-12-20T12:36:42.551Z,45.20
2017-12-20T12:39:10.902Z,53.63
2017-12-20T12:41:38.487Z,40.90
2017-12-20T12:44:06.452Z,52.30
2017-12-20T12:46:33.972Z,108.43
2017-12-20T12:49:01.613Z,158.10
2017-12-20T12:51:29.882Z,89.43
2017-12-20T12:53:57.402Z,91.47
2017-12-20T12:56:25.359Z,82.43
2017-12-20T12:58:53.622Z,120.83
2017-12-20T13:01:21.138Z,103.73
2017-12-20T13:03:49.083Z,102.00
2017-12-20T13:06:16.610Z,91.17
2017-12-20T13:08:44.132Z,59.23
2017-12-20T13:11:11.672Z,64.30
2017-12-20T13:13:39.250Z,65.77
2017-12-20T13:16:07.635Z,76.40
2017-12-20T13:18:35.177Z,61.37
2017-12-20T13:21:03.119Z,52.67
2017-12-20T13:23:30.652Z,89.47
2017-12-20T13:25:58.169Z,81.47
2017-12-20T13:28:25.734Z,99.97
2017-12-20T13:30:53.252Z,89.47
2017-12-20T13:33:20.784Z,70.30
2017-12-20T13:35:48.673Z,73.33
2017-12-20T13:38:16.221Z,66.90
2017-12-20T13:40:43.741Z,78.13
2017-12-20T13:43:11.312Z,96.00
2017-12-20T13:45:38.839Z,93.30
2017-12-20T13:48:06.375Z,85.10
2017-12-20T13:50:33.951Z,95.40
2017-12-20T13:53:01.777Z,92.37
2017-12-20T13:55:29.304Z,103.07
2017-12-20T13:57:56.883Z,109.00
2017-12-20T14:00:24.420Z,77.53
2017-12-20T14:02:51.948Z,104.87
2017-12-20T14:05:19.532Z,145.07
2017-12-20T14:07:47.109Z,125.50
2017-12-20T14:10:14.699Z,139.70
2017-12-20T14:12:42.237Z,150.87
2017-12-20T14:15:09.784Z,158.47
2017-12-20T14:17:37.356Z,111.10
2017-12-20T14:20:04.876Z,95.93
2017-12-20T14:22:32.398Z,236.00
2017-12-20T14:24:59.972Z,122.97
2017-12-20T14:27:27.496Z,167.97
2017-12-20T14:29:55.022Z,302.90
2017-12-20T14:32:22.588Z,205.37
2017-12-20T14:34:50.098Z,86.87
2017-12-20T14:37:17.675Z,162.23
2017-12-20T14:39:45.196Z,126.77
2017-12-20T14:42:12.734Z,126.37
2017-12-20T14:44:40.283Z,114.50
2017-12-20T14:47:07.804Z,159.73
2017-12-20T14:49:35.373Z,201.13
2017-12-20T14:52:02.924Z,104.60
2017-12-20T14:54:30.470Z,147.73
2017-12-20T14:56:58.383Z,210.40
2017-12-20T14:59:25.922Z,161.33
2017-12-20T15:01:53.450Z,183.87
2017-12-20T15:04:21.003Z,248.90
2017-12-20T15:06:48.554Z,159.33
2017-12-20T15:09:16.540Z,291.60
2017-12-20T15:11:44.072Z,189.40
2017-12-20T15:14:11.602Z,108.57
2017-12-20T15:16:39.186Z,89.33
2017-12-20T15:19:06.704Z,99.03
2017-12-20T15:21:34.223Z,118.20
2017-12-20T15:24:01.780Z,118.47
2017-12-20T15:26:29.323Z,150.10
2017-12-20T15:28:56.848Z,124.60
2017-12-20T15:31:24.418Z,137.40
2017-12-20T15:33:51.951Z,106.50
2017-12-20T15:36:19.520Z,104.60
2017-12-20T15:38:47.075Z,105.20
2017-12-20T15:41:14.630Z,113.33
2017-12-20T15:43:42.227Z,140.43
2017-12-20T15:46:09.749Z,123.73
2017-12-20T15:48:37.278Z,97.27
2017-12-20T15:51:04.824Z,120.00
2017-12-20T15:53:32.368Z,81.40
2017-12-20T15:55:59.923Z,160.20
2017-12-20T15:58:27.470Z,107.10
2017-12-20T16:00:54.996Z,118.60
2017-12-20T16:03:22.552Z,126.50
2017-12-20T16:05:50.123Z,84.13
2017-12-20T16:08:17.659Z,86.47
2017-12-20T16:10:45.290Z,112.33
2017-12-20T16:13:12.821Z,120.17
2017-12-20T16:15:40.368Z,194.27
2017-12-20T16:18:07.928Z,156.80
2017-12-20T16:20:35.485Z,192.30
2017-12-20T16:23:03.076Z,178.77
2017-12-20T16:25:30.613Z,176.03
2017-12-20T16:27:58.153Z,240.47
2017-12-20T16:30:26.136Z,204.57
2017-12-20T16:32:53.656Z,276.63
2017-12-20T16:35:21.275Z,230.00
2017-12-20T16:37:48.816Z,144.13
2017-12-20T16:40:16.346Z,124.63
2017-12-20T16:42:43.925Z,154.37
2017-12-20T16:45:11.462Z,253.23
2017-12-20T16:47:39.447Z,162.47
2017-12-20T16:50:06.996Z,211.63
2017-12-20T16:52:34.525Z,118.37
2017-12-20T16:55:02.125Z,218.93
2017-12-20T16:57:29.656Z,117.17
2017-12-20T16:59:57.202Z,218.37
2017-12-20T17:02:24.794Z,103.83
2017-12-20T17:04:52.355Z,120.57
2017-12-20T17:07:19.879Z,106.70
2017-12-20T17:09:47.424Z,173.57
2017-12-20T17:12:14.961Z,120.87
2017-12-20T17:14:42.537Z,124.73
2017-12-20T17:17:10.059Z,113.13
2017-12-20T17:19:37.586Z,125.60
2017-12-20T17:22:05.140Z,116.50
2017-12-20T17:24:32.684Z,141.70
2017-12-20T17:27:00.258Z,186.07
2017-12-20T17:29:27.781Z,185.27
2017-12-20T17:31:55.299Z,139.30
2017-12-20T17:34:22.850Z,156.33
2017-12-20T17:36:50.378Z,153.33
2017-12-20T17:39:17.988Z,153.97
2017-12-20T17:41:45.517Z,114.40
2017-12-20T17:44:13.039Z,117.63
2017-12-20T17:46:40.593Z,202.97
2017-12-20T17:49:08.198Z,151.30
2017-12-20T17:51:35.724Z,126.97
2017-12-20T17:54:03.244Z,314.03
2017-12-20T17:56:30.818Z,261.60
2017-12-20T17:58:58.344Z,240.00
2017-12-20T18:01:25.883Z,164.10
2017-12-20T18:03:53.428Z,268.27
2017-12-20T18:06:21.003Z,156.30
2017-12-20T18:08:48.529Z,229.77
2017-12-20T18:11:16.059Z,192.70
2017-12-20T18:13:44.012Z,108.53
2017-12-20T18:16:11.536Z,140.37
2017-12-20T18:18:39.071Z,192.73
2017-12-20T18:21:06.652Z,212.70
2017-12-20T18:23:34.176Z,170.80
2017-12-20T18:26:01.713Z,190.70
2017-12-20T18:28:29.296Z,244.23
2017-12-20T18:30:56.821Z,200.13
2017-12-20T18:33:24.363Z,125.13
2017-12-20T18:35:51.935Z,272.90
2017-12-20T18:38:19.470Z,291.83
2017-12-20T18:40:46.995Z,167.20
2017-12-20T18:43:14.571Z,95.00
2017-12-20T18:45:42.124Z,77.87
2017-12-20T18:48:09.672Z,95.83
2017-12-20T18:50:37.239Z,94.27
2017-12-20T18:53:04.785Z,130.47
2017-12-20T18:55:32.312Z,93.07
2017-12-20T18:58:00.108Z,104.70
2017-12-20T19:00:27.683Z,119.50
2017-12-20T19:02:55.211Z,100.20
2017-12-20T19:05:22.876Z,118.47
2017-12-20T19:07:50.392Z,98.97
2017-12-20T19:10:18.002Z,136.37
2017-12-20T19:12:45.580Z,138.60
2017-12-20T19:15:13.175Z,135.83
2017-12-20T19:17:40.747Z,130.40
2017-12-20T19:20:08.263Z,144.00
2017-12-20T19:22:35.780Z,139.33
2017-12-20T19:25:03.355Z,125.47
2017-12-20T19:27:30.879Z,103.53
2017-12-20T19:29:58.468Z,92.53
2017-12-20T19:32:26.024Z,106.27
2017-12-20T19:34:54.409Z,109.13
2017-12-20T19:37:21.979Z,75.80
2017-12-20T19:39:49.504Z,103.90
2017-12-20T19:42:17.088Z,86.07
2017-12-20T19:44:44.666Z,115.07
2017-12-20T19:47:12.179Z,78.53
2017-12-20T19:49:40.198Z,84.20
2017-12-20T19:52:07.832Z,91.20
2017-12-20T19:54:35.612Z,102.23
2017-12-20T19:57:03.188Z,89.13
2017-12-20T19:59:30.964Z,94.10
2017-12-20T20:01:58.613Z,108.57
2017-12-20T20:04:26.166Z,128.97
2017-12-20T20:06:53.710Z,118.77
2017-12-20T20:09:21.320Z,114.00
2017-12-20T20:11:48.928Z,125.07
2017-12-20T20:14:16.469Z,134.33
2017-12-20T20:16:43.987Z,150.43
2017-12-20T20:19:11.612Z,135.00
2017-12-20T20:21:39.139Z,142.20
2017-12-20T20:24:06.702Z,135.77
2017-12-20T20:26:34.469Z,144.13
2017-12-20T20:29:02.074Z,131.53
2017-12-20T20:31:29.654Z,134.80
2017-12-20T20:33:57.171Z,156.13
2017-12-20T20:36:24.748Z,122.73
2017-12-20T20:38:52.323Z,156.63
2017-12-20T20:41:19.839Z,120.80
2017-12-20T20:43:47.402Z,121.00
2017-12-20T20:46:14.942Z,140.23
2017-12-20T20:48:42.557Z,166.07
2017-12-20T20:51:10.089Z,139.23
2017-12-20T20:53:37.617Z,149.37
2017-12-20T20:56:05.192Z,125.80
2017-12-20T20:58:32.772Z,145.03
2017-12-20T21:01:00.365Z,116.40
2017-12-20T21:03:27.888Z,127.27
2017-12-20T21:05:55.420Z,133.83
2017-12-20T21:08:23.011Z,168.50
2017-12-20T21:10:50.581Z,157.53
2017-12-20T21:13:18.146Z,150.63
2017-12-20T21:15:45.799Z,157.70
2017-12-20T21:18:13.323Z,139.87
2017-12-20T21:20:40.846Z,118.90
2017-12-20T21:23:08.415Z,93.00
2017-12-20T21:25:36.002Z,93.90
2017-12-20T21:28:03.528Z,89.83
2017-12-20T21:30:31.108Z,83.20
2017-12-20T21:32:58.628Z,84.33
2017-12-20T21:35:26.169Z,70.40
2017-12-20T21:37:53.733Z,100.33
2017-12-20T21:40:21.362Z,76.07
2017-12-20T21:42:48.958Z,86.03
2017-12-20T21:45:16.518Z,85.67
2017-12-20T21:47:44.147Z,89.77
2017-12-20T21:50:11.681Z,70.40
2017-12-20T21:52:39.249Z,69.87
2017-12-20T21:55:06.823Z,55.50
2017-12-20T21:57:34.335Z,62.87
2017-12-20T22:00:01.895Z,58.83
2017-12-20T22:02:29.419Z,60.53
2017-12-20T22:04:56.964Z,65.00
2017-12-20T22:07:24.493Z,71.30
2017-12-20T22:09:52.110Z,66.17
2017-12-20T22:12:19.636Z,61.47
2017-12-20T22:14:47.151Z,59.13
2017-12-20T22:17:14.804Z,65.50
2017-12-20T22:19:42.328Z,64.27
2017-12-20T22:22:09.886Z,64.80
2017-12-20T22:24:37.489Z,66.77
2017-12-20T22:27:05.017Z,70.90
2017-12-20T22:29:32.544Z,69.87
2017-12-20T22:32:00.119Z,85.30
2017-12-20T22:34:27.644Z,75.00
2017-12-20T22:36:55.201Z,79.87
2017-12-20T22:39:22.761Z,87.77
2017-12-20T22:41:50.289Z,85.57
2017-12-20T22:44:17.861Z,74.83
2017-12-20T22:46:45.384Z,73.60
2017-12-20T22:49:12.918Z,72.43
2017-12-20T22:51:40.516Z,84.77
2017-12-20T22:54:08.077Z,85.97
2017-12-20T22:56:35.715Z,72.70
2017-12-20T22:59:03.246Z,65.60
2017-12-20T23:01:30.764Z,69.93
2017-12-20T23:03:58.385Z,62.13
2017-12-20T23:06:25.954Z,86.07
2017-12-20T23:08:53.544Z,82.43
2017-12-20T23:11:21.169Z,85.07
2017-12-20T23:13:48.713Z,76.77
2017-12-20T23:16:16.264Z,75.07
2017-12-20T23:18:43.846Z,72.30
2017-12-20T23:21:11.420Z,81.53
2017-12-20T23:23:38.954Z,76.70
2017-12-20T23:26:06.470Z,75.27
2017-12-20T23:28:34.032Z,61.90
2017-12-20T23:31:01.586Z,70.67
2017-12-20T23:33:29.107Z,75.50
2017-12-20T23:35:56.652Z,89.57
2017-12-20T23:38:24.179Z,73.63
2017-12-20T23:40:51.722Z,96.07
2017-12-20T23:43:19.327Z,102.27
2017-12-20T23:45:46.896Z,88.67
2017-12-20T23:48:14.560Z,91.37
2017-12-20T23:50:42.147Z,106.00
2017-12-20T23:53:09.759Z,115.70
2017-12-20T23:55:37.283Z,120.43
2017-12-20T23:58:04.804Z,120.30
